createdAt,value
2018-06-20T00:02:44.986Z,2.43
2018-06-20T00:07:39.682Z,2.30
2018-06-20T00:12:34.255Z,2.20
2018-06-20T00:17:28.814Z,2.47
2018-06-20T00:22:23.337Z,2.20
2018-06-20T00:27:17.879Z,2.53
2018-06-20T00:32:12.394Z,2.33
2018-06-20T00:37:06.940Z,2.50
2018-06-20T00:42:01.511Z,2.30
2018-06-20T00:46:56.245Z,2.43
2018-06-20T00:51:50.796Z,2.37
2018-06-20T00:56:45.340Z,2.50
2018-06-20T01:01:39.880Z,2.33
2018-06-20T01:06:34.395Z,2.63
2018-06-20T01:11:28.998Z,2.80
2018-06-20T01:21:25.370Z,2.47
2018-06-20T01:26:19.903Z,2.33
2018-06-20T01:31:14.543Z,2.50
2018-06-20T01:36:08.849Z,2.60
2018-06-20T01:41:03.465Z,2.40
2018-06-20T01:45:57.989Z,2.80
2018-06-20T01:50:56.999Z,2.47
2018-06-20T01:55:51.814Z,2.70
2018-06-20T02:00:46.453Z,2.50
2018-06-20T02:05:40.978Z,2.60
2018-06-20T02:10:35.510Z,2.33
2018-06-20T02:15:30.089Z,2.60
2018-06-20T02:20:25.321Z,2.67
2018-06-20T02:25:19.877Z,2.70
2018-06-20T02:30:17.292Z,2.70
2018-06-20T02:35:11.867Z,2.90
2018-06-20T02:40:06.591Z,2.50
2018-06-20T02:45:01.131Z,2.83
2018-06-20T02:49:55.770Z,2.93
2018-06-20T02:54:50.367Z,2.63
2018-06-20T02:59:44.971Z,2.67
2018-06-20T03:04:39.655Z,2.80
2018-06-20T03:09:34.276Z,2.90
2018-06-20T03:14:29.018Z,3.00
2018-06-20T03:19:24.816Z,3.00
2018-06-20T03:24:19.335Z,3.43
2018-06-20T03:29:13.886Z,3.03
2018-06-20T03:34:08.412Z,3.10
2018-06-20T03:39:03.089Z,3.07
2018-06-20T03:43:57.685Z,3.17
2018-06-20T03:48:52.183Z,2.80
2018-06-20T03:53:46.710Z,3.50
2018-06-20T03:58:42.818Z,3.33
2018-06-20T04:03:37.382Z,3.83
2018-06-20T04:08:31.975Z,3.70
2018-06-20T04:13:26.577Z,3.70
2018-06-20T04:18:24.172Z,4.00
2018-06-20T04:23:18.710Z,3.47
2018-06-20T04:28:13.313Z,3.30
2018-06-20T04:33:07.941Z,3.67
2018-06-20T04:38:02.522Z,4.03
2018-06-20T04:42:58.966Z,3.67
2018-06-20T04:47:55.368Z,3.70
2018-06-20T04:52:49.889Z,3.67
2018-06-20T04:57:44.404Z,3.77
2018-06-20T05:02:39.149Z,4.13
2018-06-20T05:07:33.798Z,3.67
2018-06-20T05:12:28.363Z,3.57
2018-06-20T05:17:23.048Z,3.27
2018-06-20T05:22:17.614Z,3.30
2018-06-20T05:27:12.114Z,3.30
2018-06-20T05:32:06.725Z,3.43
2018-06-20T05:37:01.256Z,3.03
2018-06-20T05:41:55.903Z,3.40
2018-06-20T05:46:50.595Z,3.57
2018-06-20T05:51:44.882Z,3.87
2018-06-20T05:56:39.496Z,2.90
2018-06-20T06:01:34.167Z,3.00
2018-06-20T06:06:29.874Z,3.00
2018-06-20T06:11:24.428Z,2.87
2018-06-20T06:16:19.011Z,2.90
2018-06-20T06:21:13.635Z,3.07
2018-06-20T06:26:08.243Z,3.00
2018-06-20T06:31:02.766Z,3.30
2018-06-20T06:35:57.340Z,3.03
2018-06-20T06:40:52.528Z,3.30
2018-06-20T06:45:47.119Z,3.37
2018-06-20T06:50:41.708Z,3.57
2018-06-20T06:55:36.258Z,2.80
2018-06-20T07:00:30.926Z,2.87
2018-06-20T07:05:25.537Z,2.90
2018-06-20T07:10:20.146Z,3.27
2018-06-20T07:15:14.795Z,2.75
2018-06-20T07:20:09.457Z,3.08
2018-06-20T07:25:04.326Z,2.70
2018-06-20T07:29:58.967Z,2.75
2018-06-20T07:34:53.766Z,2.90
2018-06-20T07:39:48.291Z,2.87
2018-06-20T07:44:42.890Z,2.72
2018-06-20T07:49:37.443Z,2.42
2018-06-20T07:54:31.991Z,2.87
2018-06-20T07:59:30.563Z,2.98
2018-06-20T08:04:30.233Z,2.45
2018-06-20T08:09:29.769Z,2.95
2018-06-20T08:14:29.393Z,3.10
2018-06-20T08:19:28.935Z,2.70
2018-06-20T08:24:23.480Z,2.92
2018-06-20T08:29:18.021Z,3.27
2018-06-20T08:34:12.778Z,2.70
2018-06-20T08:39:08.810Z,2.90
2018-06-20T08:44:03.598Z,2.85
2018-06-20T08:48:58.163Z,2.80
2018-06-20T08:53:52.745Z,2.58
2018-06-20T08:58:47.398Z,2.98
2018-06-20T09:03:42.738Z,2.65
2018-06-20T09:08:42.417Z,2.70
2018-06-20T09:13:45.794Z,2.50
2018-06-20T09:18:45.309Z,2.62
2018-06-20T09:23:39.933Z,2.80
2018-06-20T09:28:34.602Z,2.45
2018-06-20T09:33:29.208Z,2.45
2018-06-20T09:38:23.771Z,2.42
2018-06-20T09:43:18.372Z,2.67
2018-06-20T09:48:12.931Z,2.70
2018-06-20T09:53:07.821Z,2.47
2018-06-20T09:58:02.433Z,2.50
2018-06-20T10:03:02.043Z,2.62
2018-06-20T10:08:04.639Z,2.50
2018-06-20T10:13:04.319Z,2.77
2018-06-20T10:17:58.839Z,2.33
2018-06-20T10:22:53.509Z,2.33
2018-06-20T10:27:48.031Z,2.37
2018-06-20T10:32:42.599Z,2.22
2018-06-20T10:37:37.256Z,2.02
2018-06-20T10:42:31.894Z,2.30
2018-06-20T10:47:31.641Z,2.22
2018-06-20T10:52:26.295Z,2.22
2018-06-20T10:57:26.014Z,2.05
2018-06-20T11:02:25.739Z,1.67
2018-06-20T11:07:25.346Z,1.80
2018-06-20T11:12:24.957Z,1.80
2018-06-20T11:17:19.559Z,1.80
2018-06-20T11:22:14.287Z,1.70
2018-06-20T11:27:08.929Z,1.87
2018-06-20T11:32:03.514Z,1.50
2018-06-20T11:36:58.044Z,1.45
2018-06-20T11:41:52.598Z,1.75
2018-06-20T11:46:52.297Z,1.70
2018-06-20T11:51:46.896Z,1.42
2018-06-20T11:56:41.527Z,1.50
2018-06-20T12:01:41.258Z,1.55
2018-06-20T12:06:41.039Z,1.40
2018-06-20T12:11:40.958Z,1.60
2018-06-20T12:16:36.664Z,1.60
2018-06-20T12:21:36.344Z,1.50
2018-06-20T12:26:35.995Z,1.50
2018-06-20T12:31:35.793Z,1.30
2018-06-20T12:36:35.640Z,1.50
2018-06-20T12:41:36.964Z,1.50
2018-06-20T12:46:51.566Z,1.60
2018-06-20T12:51:46.095Z,1.37
2018-06-20T12:56:40.630Z,1.60
2018-06-20T13:01:35.210Z,1.60
2018-06-20T13:06:29.839Z,1.60
2018-06-20T13:11:24.397Z,1.30
2018-06-20T13:16:18.944Z,1.60
2018-06-20T13:21:13.506Z,1.50
2018-06-20T13:26:08.067Z,1.57
2018-06-20T13:31:07.695Z,1.90
2018-06-20T13:36:07.324Z,1.60
2018-06-20T13:41:07.022Z,1.90
2018-06-20T13:46:06.839Z,1.52
2018-06-20T13:51:01.443Z,1.77
2018-06-20T13:55:55.975Z,1.85
2018-06-20T14:00:50.539Z,1.85
2018-06-20T14:05:45.099Z,1.72
2018-06-20T14:10:39.829Z,1.75
2018-06-20T14:15:34.468Z,1.50
2018-06-20T14:20:34.232Z,1.55
2018-06-20T14:25:28.853Z,1.70
2018-06-20T14:30:28.492Z,1.70
2018-06-20T14:35:28.052Z,1.67
2018-06-20T14:40:27.543Z,1.52
2018-06-20T14:45:27.283Z,1.60
2018-06-20T14:50:21.880Z,1.70
2018-06-20T14:55:16.462Z,1.52
2018-06-20T15:00:11.044Z,1.47
2018-06-20T15:05:05.947Z,1.70
2018-06-20T15:10:00.482Z,1.65
2018-06-20T15:14:55.042Z,1.50
2018-06-20T15:19:49.629Z,1.75
2018-06-20T15:24:44.178Z,1.82
2018-06-20T15:29:43.873Z,1.60
2018-06-20T15:34:43.465Z,1.75
2018-06-20T15:39:38.083Z,1.72
2018-06-20T15:44:32.655Z,1.80
2018-06-20T15:49:27.323Z,1.57
2018-06-20T15:54:21.903Z,2.02
2018-06-20T15:59:16.461Z,1.80
2018-06-20T16:04:11.039Z,1.52
2018-06-20T16:09:12.974Z,1.77
2018-06-20T16:14:07.547Z,1.70
2018-06-20T16:19:07.366Z,1.37
2018-06-20T16:24:07.216Z,1.77
2018-06-20T16:29:07.102Z,1.85
2018-06-20T16:34:02.105Z,1.75
2018-06-20T16:38:57.464Z,1.67
2018-06-20T16:43:52.171Z,1.72
2018-06-20T16:48:46.443Z,1.75
2018-06-20T16:53:41.002Z,1.77
2018-06-20T16:58:35.571Z,1.60
2018-06-20T17:03:30.166Z,1.95
2018-06-20T17:08:24.716Z,1.90
2018-06-20T17:13:24.400Z,1.75
2018-06-20T17:18:24.227Z,1.82
2018-06-20T17:23:23.860Z,2.17
2018-06-20T17:28:18.583Z,1.70
2018-06-20T17:33:13.152Z,1.80
2018-06-20T17:38:07.789Z,2.00
2018-06-20T17:43:02.365Z,1.98
2018-06-20T17:47:56.951Z,1.67
2018-06-20T17:52:51.547Z,1.90
2018-06-20T17:57:46.123Z,1.80
2018-06-20T18:02:40.699Z,1.90
2018-06-20T18:07:40.338Z,1.92
2018-06-20T18:12:40.124Z,1.77
2018-06-20T18:17:34.708Z,1.80
2018-06-20T18:22:30.324Z,1.87
2018-06-20T18:27:24.981Z,2.17
2018-06-20T18:32:19.575Z,1.92
2018-06-20T18:37:14.124Z,2.12
2018-06-20T18:42:08.738Z,2.30
2018-06-20T18:47:03.343Z,1.95
2018-06-20T18:51:57.927Z,2.40
2018-06-20T18:56:52.611Z,2.37
2018-06-20T19:01:52.452Z,2.37
2018-06-20T19:06:52.315Z,2.60
2018-06-20T19:11:47.291Z,2.05
2018-06-20T19:16:41.928Z,1.95
2018-06-20T19:21:37.487Z,2.10
2018-06-20T19:26:32.327Z,2.30
2018-06-20T19:31:26.534Z,2.33
2018-06-20T19:36:21.090Z,2.58
2018-06-20T19:41:15.691Z,2.52
2018-06-20T19:46:10.299Z,2.35
2018-06-20T19:51:05.202Z,2.62
2018-06-20T19:55:59.804Z,2.35
2018-06-20T20:00:54.414Z,2.60
2018-06-20T20:05:49.026Z,2.85
2018-06-20T20:10:43.648Z,2.72
2018-06-20T20:15:38.249Z,2.30
2018-06-20T20:20:32.847Z,2.20
2018-06-20T20:25:27.454Z,2.52
2018-06-20T20:30:22.092Z,2.30
2018-06-20T20:35:16.719Z,2.42
2018-06-20T20:40:11.306Z,2.27
2018-06-20T20:45:06.060Z,2.50
2018-06-20T20:50:00.718Z,2.22
2018-06-20T20:54:55.292Z,2.37
2018-06-20T20:59:49.819Z,2.50
2018-06-20T21:04:44.451Z,2.42
2018-06-20T21:09:39.077Z,2.65
2018-06-20T21:14:33.699Z,2.47
2018-06-20T21:19:28.247Z,2.75
2018-06-20T21:24:22.474Z,3.10
2018-06-20T21:29:17.046Z,2.33
2018-06-20T21:34:11.655Z,2.42
2018-06-20T21:39:09.855Z,2.47
2018-06-20T21:44:04.442Z,2.60
2018-06-20T21:48:58.998Z,2.70
2018-06-20T21:53:53.619Z,2.70
2018-06-20T21:58:48.189Z,2.80
2018-06-20T22:03:42.485Z,2.47
2018-06-20T22:08:36.719Z,2.67
2018-06-20T22:13:31.293Z,2.72
2018-06-20T22:18:25.887Z,2.65
2018-06-20T22:23:20.387Z,2.58
2018-06-20T22:28:14.963Z,2.70
2018-06-20T22:33:09.479Z,2.80
2018-06-20T22:38:04.059Z,2.90
2018-06-20T22:42:58.629Z,2.83
2018-06-20T22:47:53.339Z,2.55
2018-06-20T22:52:47.577Z,2.90
2018-06-20T22:57:42.136Z,2.85
2018-06-20T23:02:36.731Z,2.60
2018-06-20T23:07:31.376Z,2.50
2018-06-20T23:12:25.910Z,2.77
2018-06-20T23:17:20.479Z,3.40
2018-06-20T23:22:15.029Z,3.70
2018-06-20T23:27:09.643Z,3.20
2018-06-20T23:32:04.203Z,3.00
2018-06-20T23:36:58.760Z,3.30
2018-06-20T23:41:53.311Z,3.00
2018-06-20T23:46:47.899Z,3.00
2018-06-20T23:51:42.511Z,2.67
2018-06-20T23:56:37.050Z,2.80
